sensor_id;sensor_type;location;lat;lon;timestamp;temperature;humidity
29917;DHT22;16786;49.466;11.068;2024-01-27T00:00:32;4.20;99.90
29917;DHT22;16786;49.466;11.068;2024-01-27T00:02:59;4.10;99.90
29917;DHT22;16786;49.466;11.068;2024-01-27T00:05:26;4.10;99.90
29917;DHT22;16786;49.466;11.068;2024-01-27T00:07:57;4.10;99.90
29917;DHT22;16786;49.466;11.068;2024-01-27T00:10:24;4.10;99.90
29917;DHT22;16786;49.466;11.068;2024-01-27T00:12:51;4.10;99.90
29917;DHT22;16786;49.466;11.068;2024-01-27T00:15:18;4.10;99.90
29917;DHT22;16786;49.466;11.068;2024-01-27T00:17:45;4.00;99.90
29917;DHT22;16786;49.466;11.068;2024-01-27T00:20:12;4.00;99.90
29917;DHT22;16786;49.466;11.068;2024-01-27T00:22:39;3.90;99.90
29917;DHT22;16786;49.466;11.068;2024-01-27T00:25:06;3.90;99.90
29917;DHT22;16786;49.466;11.068;2024-01-27T00:27:33;3.80;99.90
29917;DHT22;16786;49.466;11.068;2024-01-27T00:30:01;3.80;99.90
29917;DHT22;16786;49.466;11.068;2024-01-27T00:32:28;3.80;99.90
29917;DHT22;16786;49.466;11.068;2024-01-27T00:34:55;3.80;99.90
29917;DHT22;16786;49.466;11.068;2024-01-27T00:37:22;3.80;99.90
29917;DHT22;16786;49.466;11.068;2024-01-27T00:39:49;3.70;99.90
29917;DHT22;16786;49.466;11.068;2024-01-27T00:42:16;3.70;99.90
29917;DHT22;16786;49.466;11.068;2024-01-27T00:44:43;3.60;99.90
29917;DHT22;16786;49.466;11.068;2024-01-27T00:47:10;3.60;99.90
29917;DHT22;16786;49.466;11.068;2024-01-27T00:49:37;3.50;99.90
29917;DHT22;16786;49.466;11.068;2024-01-27T00:52:05;3.50;99.90
29917;DHT22;16786;49.466;11.068;2024-01-27T00:54:31;3.30;99.90
29917;DHT22;16786;49.466;11.068;2024-01-27T00:56:58;3.30;99.90
29917;DHT22;16786;49.466;11.068;2024-01-27T00:59:25;3.20;99.90
29917;DHT22;16786;49.466;11.068;2024-01-27T01:01:52;3.30;99.90
29917;DHT22;16786;49.466;11.068;2024-01-27T01:04:19;3.20;99.90
29917;DHT22;16786;49.466;11.068;2024-01-27T01:06:46;3.20;99.90
29917;DHT22;16786;49.466;11.068;2024-01-27T01:09:13;3.10;99.90
29917;DHT22;16786;49.466;11.068;2024-01-27T01:11:40;3.10;99.90
29917;DHT22;16786;49.466;11.068;2024-01-27T01:14:07;3.10;99.90
29917;DHT22;16786;49.466;11.068;2024-01-27T01:16:34;3.00;99.90
29917;DHT22;16786;49.466;11.068;2024-01-27T01:19:01;2.90;99.90
29917;DHT22;16786;49.466;11.068;2024-01-27T01:21:28;2.90;99.90
29917;DHT22;16786;49.466;11.068;2024-01-27T01:23:55;2.90;99.90
29917;DHT22;16786;49.466;11.068;2024-01-27T01:26:24;2.90;99.90
29917;DHT22;16786;49.466;11.068;2024-01-27T01:29:24;2.80;99.90
29917;DHT22;16786;49.466;11.068;2024-01-27T01:31:51;2.80;99.90
29917;DHT22;16786;49.466;11.068;2024-01-27T01:34:18;2.80;99.90
29917;DHT22;16786;49.466;11.068;2024-01-27T01:36:45;2.80;99.90
29917;DHT22;16786;49.466;11.068;2024-01-27T01:39:12;2.70;99.90
29917;DHT22;16786;49.466;11.068;2024-01-27T01:41:42;2.80;99.90
29917;DHT22;16786;49.466;11.068;2024-01-27T01:44:09;2.80;99.90
29917;DHT22;16786;49.466;11.068;2024-01-27T01:46:36;2.70;99.90
29917;DHT22;16786;49.466;11.068;2024-01-27T01:49:03;2.80;99.90
29917;DHT22;16786;49.466;11.068;2024-01-27T01:51:30;2.70;99.90
29917;DHT22;16786;49.466;11.068;2024-01-27T01:53:58;2.70;99.90
29917;DHT22;16786;49.466;11.068;2024-01-27T01:56:25;2.70;99.90
29917;DHT22;16786;49.466;11.068;2024-01-27T01:58:54;2.70;99.90
29917;DHT22;16786;49.466;11.068;2024-01-27T02:01:21;2.60;99.90
29917;DHT22;16786;49.466;11.068;2024-01-27T02:03:55;2.60;99.90
29917;DHT22;16786;49.466;11.068;2024-01-27T02:06:23;2.50;99.90
29917;DHT22;16786;49.466;11.068;2024-01-27T02:08:50;2.50;99.90
29917;DHT22;16786;49.466;11.068;2024-01-27T02:11:18;2.40;99.90
29917;DHT22;16786;49.466;11.068;2024-01-27T02:13:45;2.50;99.90
29917;DHT22;16786;49.466;11.068;2024-01-27T02:16:13;2.50;99.90
29917;DHT22;16786;49.466;11.068;2024-01-27T02:18:40;2.60;99.90
29917;DHT22;16786;49.466;11.068;2024-01-27T02:21:07;2.60;99.90
29917;DHT22;16786;49.466;11.068;2024-01-27T02:23:34;2.60;99.90
29917;DHT22;16786;49.466;11.068;2024-01-27T02:26:01;2.60;99.90
29917;DHT22;16786;49.466;11.068;2024-01-27T02:28:28;2.60;99.90
29917;DHT22;16786;49.466;11.068;2024-01-27T02:30:59;2.50;99.90
29917;DHT22;16786;49.466;11.068;2024-01-27T02:33:29;2.40;99.90
29917;DHT22;16786;49.466;11.068;2024-01-27T02:35:56;2.50;99.90
29917;DHT22;16786;49.466;11.068;2024-01-27T02:38:23;2.50;99.90
29917;DHT22;16786;49.466;11.068;2024-01-27T02:40:50;2.40;99.90
29917;DHT22;16786;49.466;11.068;2024-01-27T02:43:17;2.40;99.90
29917;DHT22;16786;49.466;11.068;2024-01-27T02:45:44;2.50;99.90
29917;DHT22;16786;49.466;11.068;2024-01-27T02:48:11;2.40;99.90
29917;DHT22;16786;49.466;11.068;2024-01-27T02:50:38;2.40;99.90
29917;DHT22;16786;49.466;11.068;2024-01-27T02:53:05;2.30;99.90
29917;DHT22;16786;49.466;11.068;2024-01-27T02:55:32;2.30;99.90
29917;DHT22;16786;49.466;11.068;2024-01-27T02:57:59;2.30;99.90
29917;DHT22;16786;49.466;11.068;2024-01-27T03:00:26;2.20;99.90
29917;DHT22;16786;49.466;11.068;2024-01-27T03:02:53;2.20;99.90
29917;DHT22;16786;49.466;11.068;2024-01-27T03:05:21;2.10;99.90
29917;DHT22;16786;49.466;11.068;2024-01-27T03:07:48;2.10;99.90
29917;DHT22;16786;49.466;11.068;2024-01-27T03:10:15;2.10;99.90
29917;DHT22;16786;49.466;11.068;2024-01-27T03:12:42;2.10;99.90
29917;DHT22;16786;49.466;11.068;2024-01-27T03:15:09;2.10;99.90
29917;DHT22;16786;49.466;11.068;2024-01-27T03:17:36;2.10;99.90
29917;DHT22;16786;49.466;11.068;2024-01-27T03:20:03;2.00;99.90
29917;DHT22;16786;49.466;11.068;2024-01-27T03:22:30;2.00;99.90
29917;DHT22;16786;49.466;11.068;2024-01-27T03:24:57;2.00;99.90
29917;DHT22;16786;49.466;11.068;2024-01-27T03:27:24;1.90;99.90
29917;DHT22;16786;49.466;11.068;2024-01-27T03:29:51;1.90;99.90
29917;DHT22;16786;49.466;11.068;2024-01-27T03:32:18;1.90;99.90
29917;DHT22;16786;49.466;11.068;2024-01-27T03:34:45;1.80;99.90
29917;DHT22;16786;49.466;11.068;2024-01-27T03:37:12;1.80;99.90
29917;DHT22;16786;49.466;11.068;2024-01-27T03:39:43;1.80;99.90
29917;DHT22;16786;49.466;11.068;2024-01-27T03:42:10;1.80;99.90
29917;DHT22;16786;49.466;11.068;2024-01-27T03:44:37;1.70;99.90
29917;DHT22;16786;49.466;11.068;2024-01-27T03:47:04;1.70;99.90
29917;DHT22;16786;49.466;11.068;2024-01-27T03:49:31;1.70;99.90
29917;DHT22;16786;49.466;11.068;2024-01-27T03:51:58;1.60;99.90
29917;DHT22;16786;49.466;11.068;2024-01-27T03:54:25;1.60;99.90
29917;DHT22;16786;49.466;11.068;2024-01-27T03:56:52;1.60;99.90
29917;DHT22;16786;49.466;11.068;2024-01-27T03:59:20;1.60;99.90
29917;DHT22;16786;49.466;11.068;2024-01-27T04:01:47;1.60;99.90
29917;DHT22;16786;49.466;11.068;2024-01-27T04:04:14;1.60;99.90
29917;DHT22;16786;49.466;11.068;2024-01-27T04:06:41;1.60;99.90
29917;DHT22;16786;49.466;11.068;2024-01-27T04:09:08;1.60;99.90
29917;DHT22;16786;49.466;11.068;2024-01-27T04:11:36;1.50;99.90
29917;DHT22;16786;49.466;11.068;2024-01-27T04:14:04;1.50;99.90
29917;DHT22;16786;49.466;11.068;2024-01-27T04:16:31;1.50;99.90
29917;DHT22;16786;49.466;11.068;2024-01-27T04:18:58;1.40;99.90
29917;DHT22;16786;49.466;11.068;2024-01-27T04:21:26;1.40;99.90
29917;DHT22;16786;49.466;11.068;2024-01-27T04:23:53;1.40;99.90
29917;DHT22;16786;49.466;11.068;2024-01-27T04:26:20;1.40;99.90
29917;DHT22;16786;49.466;11.068;2024-01-27T04:28:47;1.40;99.90
29917;DHT22;16786;49.466;11.068;2024-01-27T04:31:14;1.50;99.90
29917;DHT22;16786;49.466;11.068;2024-01-27T04:33:40;1.40;99.90
29917;DHT22;16786;49.466;11.068;2024-01-27T04:36:07;1.50;99.90
29917;DHT22;16786;49.466;11.068;2024-01-27T04:38:36;1.50;99.90
29917;DHT22;16786;49.466;11.068;2024-01-27T04:41:03;1.50;99.90
29917;DHT22;16786;49.466;11.068;2024-01-27T04:43:31;1.50;99.90
29917;DHT22;16786;49.466;11.068;2024-01-27T04:45:58;1.50;99.90
29917;DHT22;16786;49.466;11.068;2024-01-27T04:48:25;1.50;99.90
29917;DHT22;16786;49.466;11.068;2024-01-27T04:50:52;1.40;99.90
29917;DHT22;16786;49.466;11.068;2024-01-27T04:53:20;1.40;99.90
29917;DHT22;16786;49.466;11.068;2024-01-27T04:55:47;1.40;99.90
29917;DHT22;16786;49.466;11.068;2024-01-27T04:58:14;1.30;99.90
29917;DHT22;16786;49.466;11.068;2024-01-27T05:00:41;1.30;99.90
29917;DHT22;16786;49.466;11.068;2024-01-27T05:03:08;1.10;99.90
29917;DHT22;16786;49.466;11.068;2024-01-27T05:05:41;1.10;99.90
29917;DHT22;16786;49.466;11.068;2024-01-27T05:08:08;1.10;99.90
29917;DHT22;16786;49.466;11.068;2024-01-27T05:10:36;1.00;99.90
29917;DHT22;16786;49.466;11.068;2024-01-27T05:13:03;1.00;99.90
29917;DHT22;16786;49.466;11.068;2024-01-27T05:15:30;1.00;99.90
29917;DHT22;16786;49.466;11.068;2024-01-27T05:17:58;1.00;99.90
29917;DHT22;16786;49.466;11.068;2024-01-27T05:20:25;1.00;99.90
29917;DHT22;16786;49.466;11.068;2024-01-27T05:22:52;1.00;99.90
29917;DHT22;16786;49.466;11.068;2024-01-27T05:25:19;1.00;99.90
29917;DHT22;16786;49.466;11.068;2024-01-27T05:27:46;1.00;99.90
29917;DHT22;16786;49.466;11.068;2024-01-27T05:30:13;1.20;99.90
29917;DHT22;16786;49.466;11.068;2024-01-27T05:32:41;1.20;99.90
29917;DHT22;16786;49.466;11.068;2024-01-27T05:35:08;1.20;99.90
29917;DHT22;16786;49.466;11.068;2024-01-27T05:37:36;1.20;99.90
29917;DHT22;16786;49.466;11.068;2024-01-27T05:40:03;1.20;99.90
29917;DHT22;16786;49.466;11.068;2024-01-27T05:42:30;1.30;99.90
29917;DHT22;16786;49.466;11.068;2024-01-27T05:44:57;1.30;99.90
29917;DHT22;16786;49.466;11.068;2024-01-27T05:47:24;1.30;99.90
29917;DHT22;16786;49.466;11.068;2024-01-27T05:49:51;1.30;99.90
29917;DHT22;16786;49.466;11.068;2024-01-27T05:52:18;1.30;99.90
29917;DHT22;16786;49.466;11.068;2024-01-27T05:54:52;1.30;99.90
29917;DHT22;16786;49.466;11.068;2024-01-27T05:57:19;1.30;99.90
29917;DHT22;16786;49.466;11.068;2024-01-27T05:59:46;1.20;99.90
29917;DHT22;16786;49.466;11.068;2024-01-27T06:02:13;1.20;99.90
29917;DHT22;16786;49.466;11.068;2024-01-27T06:04:40;1.20;99.90
29917;DHT22;16786;49.466;11.068;2024-01-27T06:07:07;1.10;99.90
29917;DHT22;16786;49.466;11.068;2024-01-27T06:09:37;1.10;99.90
29917;DHT22;16786;49.466;11.068;2024-01-27T06:12:05;1.10;99.90
29917;DHT22;16786;49.466;11.068;2024-01-27T06:14:32;1.10;99.90
29917;DHT22;16786;49.466;11.068;2024-01-27T06:16:59;1.10;99.90
29917;DHT22;16786;49.466;11.068;2024-01-27T06:19:26;1.10;99.90
29917;DHT22;16786;49.466;11.068;2024-01-27T06:21:54;1.10;99.90
29917;DHT22;16786;49.466;11.068;2024-01-27T06:24:21;1.20;99.90
29917;DHT22;16786;49.466;11.068;2024-01-27T06:26:48;1.10;99.90
29917;DHT22;16786;49.466;11.068;2024-01-27T06:29:15;1.20;99.90
29917;DHT22;16786;49.466;11.068;2024-01-27T06:31:42;1.20;99.90
29917;DHT22;16786;49.466;11.068;2024-01-27T06:34:09;1.20;99.90
29917;DHT22;16786;49.466;11.068;2024-01-27T06:36:36;1.20;99.90
29917;DHT22;16786;49.466;11.068;2024-01-27T06:39:03;1.20;99.90
29917;DHT22;16786;49.466;11.068;2024-01-27T06:41:30;1.20;99.90
29917;DHT22;16786;49.466;11.068;2024-01-27T06:43:57;1.10;99.90
29917;DHT22;16786;49.466;11.068;2024-01-27T06:46:24;1.20;99.90
29917;DHT22;16786;49.466;11.068;2024-01-27T06:48:51;1.20;99.90
29917;DHT22;16786;49.466;11.068;2024-01-27T06:51:18;1.10;99.90
29917;DHT22;16786;49.466;11.068;2024-01-27T06:53:46;1.00;99.90
29917;DHT22;16786;49.466;11.068;2024-01-27T06:56:15;1.00;99.90
29917;DHT22;16786;49.466;11.068;2024-01-27T06:58:42;0.90;99.90
29917;DHT22;16786;49.466;11.068;2024-01-27T07:01:09;0.80;99.90
29917;DHT22;16786;49.466;11.068;2024-01-27T07:03:36;0.90;99.90
29917;DHT22;16786;49.466;11.068;2024-01-27T07:06:03;0.90;99.90
29917;DHT22;16786;49.466;11.068;2024-01-27T07:08:31;0.90;99.90
29917;DHT22;16786;49.466;11.068;2024-01-27T07:11:04;1.00;99.90
29917;DHT22;16786;49.466;11.068;2024-01-27T07:13:31;1.00;99.90
29917;DHT22;16786;49.466;11.068;2024-01-27T07:15:58;1.00;99.90
29917;DHT22;16786;49.466;11.068;2024-01-27T07:18:25;1.00;99.90
29917;DHT22;16786;49.466;11.068;2024-01-27T07:20:53;1.00;99.90
29917;DHT22;16786;49.466;11.068;2024-01-27T07:23:21;1.10;99.90
29917;DHT22;16786;49.466;11.068;2024-01-27T07:25:48;1.10;99.90
29917;DHT22;16786;49.466;11.068;2024-01-27T07:28:15;1.10;99.90
29917;DHT22;16786;49.466;11.068;2024-01-27T07:30:45;1.20;99.90
29917;DHT22;16786;49.466;11.068;2024-01-27T07:33:12;1.20;99.90
29917;DHT22;16786;49.466;11.068;2024-01-27T07:35:40;1.20;99.90
29917;DHT22;16786;49.466;11.068;2024-01-27T07:38:07;1.30;99.90
29917;DHT22;16786;49.466;11.068;2024-01-27T07:40:35;1.30;99.90
29917;DHT22;16786;49.466;11.068;2024-01-27T07:43:02;1.30;99.90
29917;DHT22;16786;49.466;11.068;2024-01-27T07:45:30;1.30;99.90
29917;DHT22;16786;49.466;11.068;2024-01-27T07:47:57;1.30;99.90
29917;DHT22;16786;49.466;11.068;2024-01-27T07:50:27;1.30;99.90
29917;DHT22;16786;49.466;11.068;2024-01-27T07:52:54;1.30;99.90
29917;DHT22;16786;49.466;11.068;2024-01-27T07:55:21;1.40;99.90
29917;DHT22;16786;49.466;11.068;2024-01-27T07:57:48;1.40;99.90
29917;DHT22;16786;49.466;11.068;2024-01-27T08:00:16;1.50;99.90
29917;DHT22;16786;49.466;11.068;2024-01-27T08:02:43;1.50;99.90
29917;DHT22;16786;49.466;11.068;2024-01-27T08:05:10;1.50;99.90
29917;DHT22;16786;49.466;11.068;2024-01-27T08:07:37;1.60;99.90
29917;DHT22;16786;49.466;11.068;2024-01-27T08:10:04;1.60;99.90
29917;DHT22;16786;49.466;11.068;2024-01-27T08:12:31;1.70;99.90
29917;DHT22;16786;49.466;11.068;2024-01-27T08:14:59;1.70;99.90
29917;DHT22;16786;49.466;11.068;2024-01-27T08:17:26;1.70;99.90
29917;DHT22;16786;49.466;11.068;2024-01-27T08:19:53;1.70;99.90
29917;DHT22;16786;49.466;11.068;2024-01-27T08:22:20;1.80;99.90
29917;DHT22;16786;49.466;11.068;2024-01-27T08:24:47;1.90;99.90
29917;DHT22;16786;49.466;11.068;2024-01-27T08:27:14;2.00;99.90
29917;DHT22;16786;49.466;11.068;2024-01-27T08:29:42;1.90;99.90
29917;DHT22;16786;49.466;11.068;2024-01-27T08:32:09;2.00;99.90
29917;DHT22;16786;49.466;11.068;2024-01-27T08:34:36;2.10;99.90
29917;DHT22;16786;49.466;11.068;2024-01-27T08:37:14;2.10;99.90
29917;DHT22;16786;49.466;11.068;2024-01-27T08:39:43;2.10;99.90
29917;DHT22;16786;49.466;11.068;2024-01-27T08:42:10;2.10;99.90
29917;DHT22;16786;49.466;11.068;2024-01-27T08:44:38;2.30;99.90
29917;DHT22;16786;49.466;11.068;2024-01-27T08:47:05;2.30;99.90
29917;DHT22;16786;49.466;11.068;2024-01-27T08:49:34;2.40;99.90
29917;DHT22;16786;49.466;11.068;2024-01-27T08:52:01;2.40;99.90
29917;DHT22;16786;49.466;11.068;2024-01-27T08:54:28;2.40;99.90
29917;DHT22;16786;49.466;11.068;2024-01-27T08:56:56;2.50;99.90
29917;DHT22;16786;49.466;11.068;2024-01-27T08:59:23;2.50;99.90
29917;DHT22;16786;49.466;11.068;2024-01-27T09:01:50;2.60;99.90
29917;DHT22;16786;49.466;11.068;2024-01-27T09:04:17;2.60;99.90
29917;DHT22;16786;49.466;11.068;2024-01-27T09:06:44;2.70;99.90
29917;DHT22;16786;49.466;11.068;2024-01-27T09:09:12;2.90;99.90
29917;DHT22;16786;49.466;11.068;2024-01-27T09:11:39;3.00;99.90
29917;DHT22;16786;49.466;11.068;2024-01-27T09:14:06;3.00;99.90
29917;DHT22;16786;49.466;11.068;2024-01-27T09:16:34;3.10;99.90
29917;DHT22;16786;49.466;11.068;2024-01-27T09:19:01;3.20;99.90
29917;DHT22;16786;49.466;11.068;2024-01-27T09:21:28;3.30;99.90
29917;DHT22;16786;49.466;11.068;2024-01-27T09:23:57;3.40;99.90
29917;DHT22;16786;49.466;11.068;2024-01-27T09:26:24;3.50;99.90
29917;DHT22;16786;49.466;11.068;2024-01-27T09:28:51;3.60;99.90
29917;DHT22;16786;49.466;11.068;2024-01-27T09:31:24;3.70;99.90
29917;DHT22;16786;49.466;11.068;2024-01-27T09:33:53;3.70;99.90
29917;DHT22;16786;49.466;11.068;2024-01-27T09:36:21;3.80;99.90
29917;DHT22;16786;49.466;11.068;2024-01-27T09:38:49;3.90;99.90
29917;DHT22;16786;49.466;11.068;2024-01-27T09:41:16;4.10;99.90
29917;DHT22;16786;49.466;11.068;2024-01-27T09:43:44;4.10;99.90
29917;DHT22;16786;49.466;11.068;2024-01-27T09:46:12;4.30;99.90
29917;DHT22;16786;49.466;11.068;2024-01-27T09:48:39;4.40;99.90
29917;DHT22;16786;49.466;11.068;2024-01-27T09:51:08;4.60;99.90
29917;DHT22;16786;49.466;11.068;2024-01-27T09:53:36;4.60;99.90
29917;DHT22;16786;49.466;11.068;2024-01-27T09:56:03;4.60;99.90
29917;DHT22;16786;49.466;11.068;2024-01-27T09:58:31;4.70;99.90
29917;DHT22;16786;49.466;11.068;2024-01-27T10:01:00;4.80;99.90
29917;DHT22;16786;49.466;11.068;2024-01-27T10:03:28;4.90;99.90
29917;DHT22;16786;49.466;11.068;2024-01-27T10:05:56;4.90;99.90
29917;DHT22;16786;49.466;11.068;2024-01-27T10:08:24;5.00;99.90
29917;DHT22;16786;49.466;11.068;2024-01-27T10:10:54;5.00;99.90
29917;DHT22;16786;49.466;11.068;2024-01-27T10:13:23;5.20;99.90
29917;DHT22;16786;49.466;11.068;2024-01-27T10:16:03;5.20;99.90
29917;DHT22;16786;49.466;11.068;2024-01-27T10:18:31;5.30;99.90
29917;DHT22;16786;49.466;11.068;2024-01-27T10:20:59;5.30;99.90
29917;DHT22;16786;49.466;11.068;2024-01-27T10:23:26;5.50;99.90
29917;DHT22;16786;49.466;11.068;2024-01-27T10:25:53;5.70;99.90
29917;DHT22;16786;49.466;11.068;2024-01-27T10:28:24;5.70;99.90
29917;DHT22;16786;49.466;11.068;2024-01-27T10:30:51;5.70;99.90
29917;DHT22;16786;49.466;11.068;2024-01-27T10:33:18;5.80;99.90
29917;DHT22;16786;49.466;11.068;2024-01-27T10:35:45;5.80;99.90
29917;DHT22;16786;49.466;11.068;2024-01-27T10:38:12;6.10;99.90
29917;DHT22;16786;49.466;11.068;2024-01-27T10:40:39;6.20;99.90
29917;DHT22;16786;49.466;11.068;2024-01-27T10:43:07;6.30;99.90
29917;DHT22;16786;49.466;11.068;2024-01-27T10:45:38;6.40;99.90
29917;DHT22;16786;49.466;11.068;2024-01-27T10:48:09;6.40;99.90
29917;DHT22;16786;49.466;11.068;2024-01-27T10:50:40;6.60;99.90
29917;DHT22;16786;49.466;11.068;2024-01-27T10:53:32;6.60;99.90
29917;DHT22;16786;49.466;11.068;2024-01-27T10:56:03;6.70;99.90
29917;DHT22;16786;49.466;11.068;2024-01-27T10:58:35;6.90;99.90
29917;DHT22;16786;49.466;11.068;2024-01-27T11:01:11;7.00;99.90
29917;DHT22;16786;49.466;11.068;2024-01-27T11:03:40;7.30;99.90
29917;DHT22;16786;49.466;11.068;2024-01-27T11:06:09;7.50;99.90
29917;DHT22;16786;49.466;11.068;2024-01-27T11:08:38;7.60;99.90
29917;DHT22;16786;49.466;11.068;2024-01-27T11:11:10;7.70;99.90
29917;DHT22;16786;49.466;11.068;2024-01-27T11:13:37;7.80;99.90
29917;DHT22;16786;49.466;11.068;2024-01-27T11:16:06;8.40;99.90
29917;DHT22;16786;49.466;11.068;2024-01-27T11:18:42;8.70;99.90
29917;DHT22;16786;49.466;11.068;2024-01-27T11:21:17;9.00;99.90
29917;DHT22;16786;49.466;11.068;2024-01-27T11:23:44;9.30;99.90
29917;DHT22;16786;49.466;11.068;2024-01-27T11:26:21;9.70;99.90
29917;DHT22;16786;49.466;11.068;2024-01-27T11:28:49;10.10;99.90
29917;DHT22;16786;49.466;11.068;2024-01-27T11:31:20;10.40;99.90
29917;DHT22;16786;49.466;11.068;2024-01-27T11:33:50;10.50;99.90
29917;DHT22;16786;49.466;11.068;2024-01-27T11:36:22;10.40;99.90
29917;DHT22;16786;49.466;11.068;2024-01-27T11:38:51;10.50;99.90
29917;DHT22;16786;49.466;11.068;2024-01-27T11:41:26;10.70;99.90
29917;DHT22;16786;49.466;11.068;2024-01-27T11:43:54;10.90;99.90
29917;DHT22;16786;49.466;11.068;2024-01-27T11:46:21;10.90;99.90
29917;DHT22;16786;49.466;11.068;2024-01-27T11:48:49;10.80;99.90
29917;DHT22;16786;49.466;11.068;2024-01-27T11:51:17;11.20;99.90
29917;DHT22;16786;49.466;11.068;2024-01-27T11:53:45;11.60;99.90
29917;DHT22;16786;49.466;11.068;2024-01-27T11:56:13;11.60;99.90
29917;DHT22;16786;49.466;11.068;2024-01-27T11:58:47;11.90;99.90
29917;DHT22;16786;49.466;11.068;2024-01-27T12:01:15;11.50;99.90
29917;DHT22;16786;49.466;11.068;2024-01-27T12:03:42;11.40;99.90
29917;DHT22;16786;49.466;11.068;2024-01-27T12:06:11;11.60;99.90
29917;DHT22;16786;49.466;11.068;2024-01-27T12:08:41;12.30;99.90
29917;DHT22;16786;49.466;11.068;2024-01-27T12:11:16;12.70;99.90
29917;DHT22;16786;49.466;11.068;2024-01-27T12:13:50;12.70;99.90
29917;DHT22;16786;49.466;11.068;2024-01-27T12:16:17;13.00;99.90
29917;DHT22;16786;49.466;11.068;2024-01-27T12:18:45;13.20;99.90
29917;DHT22;16786;49.466;11.068;2024-01-27T12:21:12;13.40;99.90
29917;DHT22;16786;49.466;11.068;2024-01-27T12:23:53;13.30;99.90
29917;DHT22;16786;49.466;11.068;2024-01-27T12:26:21;13.10;99.90
29917;DHT22;16786;49.466;11.068;2024-01-27T12:28:49;12.80;99.90
29917;DHT22;16786;49.466;11.068;2024-01-27T12:31:16;13.50;99.90
29917;DHT22;16786;49.466;11.068;2024-01-27T12:33:55;13.50;99.90
29917;DHT22;16786;49.466;11.068;2024-01-27T12:36:23;13.20;99.90
29917;DHT22;16786;49.466;11.068;2024-01-27T12:41:21;14.00;99.90
29917;DHT22;16786;49.466;11.068;2024-01-27T12:43:48;14.00;99.90
29917;DHT22;16786;49.466;11.068;2024-01-27T12:46:16;14.30;99.90
29917;DHT22;16786;49.466;11.068;2024-01-27T12:48:44;14.80;99.90
29917;DHT22;16786;49.466;11.068;2024-01-27T12:51:12;14.80;99.90
29917;DHT22;16786;49.466;11.068;2024-01-27T12:53:40;14.60;99.90
29917;DHT22;16786;49.466;11.068;2024-01-27T12:56:10;15.10;99.90
29917;DHT22;16786;49.466;11.068;2024-01-27T12:58:38;14.90;99.90
29917;DHT22;16786;49.466;11.068;2024-01-27T13:01:07;15.60;99.90
29917;DHT22;16786;49.466;11.068;2024-01-27T13:03:35;16.00;99.90
29917;DHT22;16786;49.466;11.068;2024-01-27T13:06:02;16.40;98.70
29917;DHT22;16786;49.466;11.068;2024-01-27T13:08:30;17.00;95.80
29917;DHT22;16786;49.466;11.068;2024-01-27T13:10:57;16.80;95.10
29917;DHT22;16786;49.466;11.068;2024-01-27T13:13:24;17.00;94.90
29917;DHT22;16786;49.466;11.068;2024-01-27T13:15:51;16.30;93.80
29917;DHT22;16786;49.466;11.068;2024-01-27T13:18:18;16.30;93.60
29917;DHT22;16786;49.466;11.068;2024-01-27T13:20:45;16.30;94.60
29917;DHT22;16786;49.466;11.068;2024-01-27T13:23:11;16.80;93.50
29917;DHT22;16786;49.466;11.068;2024-01-27T13:25:38;17.30;92.30
29917;DHT22;16786;49.466;11.068;2024-01-27T13:28:07;17.20;92.20
29917;DHT22;16786;49.466;11.068;2024-01-27T13:30:38;17.50;91.70
29917;DHT22;16786;49.466;11.068;2024-01-27T13:33:05;17.20;90.60
29917;DHT22;16786;49.466;11.068;2024-01-27T13:35:32;16.70;91.50
29917;DHT22;16786;49.466;11.068;2024-01-27T13:37:59;16.70;91.80
29917;DHT22;16786;49.466;11.068;2024-01-27T13:40:26;16.50;92.30
29917;DHT22;16786;49.466;11.068;2024-01-27T13:42:53;16.30;93.10
29917;DHT22;16786;49.466;11.068;2024-01-27T13:45:21;16.40;92.40
29917;DHT22;16786;49.466;11.068;2024-01-27T13:47:48;15.50;92.30
29917;DHT22;16786;49.466;11.068;2024-01-27T13:50:15;16.10;92.50
29917;DHT22;16786;49.466;11.068;2024-01-27T13:52:42;15.50;92.30
29917;DHT22;16786;49.466;11.068;2024-01-27T13:55:12;16.00;92.60
29917;DHT22;16786;49.466;11.068;2024-01-27T13:57:39;17.50;91.80
29917;DHT22;16786;49.466;11.068;2024-01-27T14:00:08;17.90;88.50
29917;DHT22;16786;49.466;11.068;2024-01-27T14:02:36;18.10;87.40
29917;DHT22;16786;49.466;11.068;2024-01-27T14:05:05;19.40;86.00
29917;DHT22;16786;49.466;11.068;2024-01-27T14:07:32;20.20;81.20
29917;DHT22;16786;49.466;11.068;2024-01-27T14:10:00;21.70;78.80
29917;DHT22;16786;49.466;11.068;2024-01-27T14:12:27;22.40;72.40
29917;DHT22;16786;49.466;11.068;2024-01-27T14:15:05;22.20;68.90
29917;DHT22;16786;49.466;11.068;2024-01-27T14:17:35;21.80;70.20
29917;DHT22;16786;49.466;11.068;2024-01-27T14:20:06;22.00;69.20
29917;DHT22;16786;49.466;11.068;2024-01-27T14:22:36;22.20;66.80
29917;DHT22;16786;49.466;11.068;2024-01-27T14:25:03;22.30;66.30
29917;DHT22;16786;49.466;11.068;2024-01-27T14:27:31;22.90;64.90
29917;DHT22;16786;49.466;11.068;2024-01-27T14:29:58;23.10;63.20
29917;DHT22;16786;49.466;11.068;2024-01-27T14:32:25;23.30;61.20
29917;DHT22;16786;49.466;11.068;2024-01-27T14:34:52;23.00;62.30
29917;DHT22;16786;49.466;11.068;2024-01-27T14:37:19;23.80;59.60
29917;DHT22;16786;49.466;11.068;2024-01-27T14:39:46;23.00;59.80
29917;DHT22;16786;49.466;11.068;2024-01-27T14:42:15;22.70;60.90
29917;DHT22;16786;49.466;11.068;2024-01-27T14:44:44;22.30;63.00
29917;DHT22;16786;49.466;11.068;2024-01-27T14:47:12;21.70;62.40
29917;DHT22;16786;49.466;11.068;2024-01-27T14:49:40;22.20;62.50
29917;DHT22;16786;49.466;11.068;2024-01-27T14:52:07;22.60;61.20
29917;DHT22;16786;49.466;11.068;2024-01-27T14:54:34;22.20;61.70
29917;DHT22;16786;49.466;11.068;2024-01-27T14:57:05;21.90;61.70
29917;DHT22;16786;49.466;11.068;2024-01-27T14:59:36;22.30;61.80
29917;DHT22;16786;49.466;11.068;2024-01-27T15:02:06;22.50;61.00
29917;DHT22;16786;49.466;11.068;2024-01-27T15:04:36;21.80;61.20
29917;DHT22;16786;49.466;11.068;2024-01-27T15:07:04;21.20;61.80
29917;DHT22;16786;49.466;11.068;2024-01-27T15:09:31;21.10;63.00
29917;DHT22;16786;49.466;11.068;2024-01-27T15:11:58;20.70;63.20
29917;DHT22;16786;49.466;11.068;2024-01-27T15:14:25;20.30;63.80
29917;DHT22;16786;49.466;11.068;2024-01-27T15:16:52;20.30;65.00
29917;DHT22;16786;49.466;11.068;2024-01-27T15:19:19;20.40;63.00
29917;DHT22;16786;49.466;11.068;2024-01-27T15:21:46;20.00;63.80
29917;DHT22;16786;49.466;11.068;2024-01-27T15:24:13;19.80;64.60
29917;DHT22;16786;49.466;11.068;2024-01-27T15:26:41;18.20;66.60
29917;DHT22;16786;49.466;11.068;2024-01-27T15:29:08;17.20;69.70
29917;DHT22;16786;49.466;11.068;2024-01-27T15:31:35;16.20;71.30
29917;DHT22;16786;49.466;11.068;2024-01-27T15:34:02;15.60;73.00